Terminal Aerodrome Forecast
Issued by NWS Mt. Holly, NJ

Home | Current Version | Previous Version | Text Only | Print | Product List | Glossary On
Versions: 1 2 3 4 5 6 7 8 9 10 11 12 13 14 15 16 17
000
FTUS41 KPHI 281313 AAA
TAFTTN
TAF AMD
KTTN 281313Z 2813/2912 20005KT 6SM BR OVC008
      TEMPO 2814/2815 P6SM NSW SCT010 BKN200
     FM281500 27008KT P6SM SCT050
      TEMPO 2819/2821 30014KT P6SM SHRA BKN040
     FM290000 32005KT P6SM SCT200
     FM290600 03003KT 6SM BR FEW200=

USA.gov is the U.S. government's official web portal to all federal, state and local government web resources and services.